sensor_id;sensor_type;location;lat;lon;timestamp;temperature;humidity
19000;DHT22;9633;50.980;13.850;2022-10-04T00:01:07;12.70;99.90
19000;DHT22;9633;50.980;13.850;2022-10-04T00:02:43;12.60;99.90
19000;DHT22;9633;50.980;13.850;2022-10-04T00:04:22;12.60;99.90
19000;DHT22;9633;50.980;13.850;2022-10-04T00:05:56;12.50;99.90
19000;DHT22;9633;50.980;13.850;2022-10-04T00:07:33;12.40;99.90
19000;DHT22;9633;50.980;13.850;2022-10-04T00:09:12;12.30;99.90
19000;DHT22;9633;50.980;13.850;2022-10-04T00:10:45;12.30;99.90
19000;DHT22;9633;50.980;13.850;2022-10-04T00:12:21;12.20;99.90
19000;DHT22;9633;50.980;13.850;2022-10-04T00:13:58;12.10;99.90
19000;DHT22;9633;50.980;13.850;2022-10-04T00:15:33;12.20;99.90
19000;DHT22;9633;50.980;13.850;2022-10-04T00:17:10;12.20;99.90
19000;DHT22;9633;50.980;13.850;2022-10-04T00:18:44;12.20;99.90
19000;DHT22;9633;50.980;13.850;2022-10-04T00:22:27;12.10;99.90
19000;DHT22;9633;50.980;13.850;2022-10-04T00:24:09;12.20;99.90
19000;DHT22;9633;50.980;13.850;2022-10-04T00:25:41;12.10;99.90
19000;DHT22;9633;50.980;13.850;2022-10-04T00:27:20;12.20;99.90
19000;DHT22;9633;50.980;13.850;2022-10-04T00:28:52;12.20;99.90
19000;DHT22;9633;50.980;13.850;2022-10-04T00:30:35;12.20;99.90
19000;DHT22;9633;50.980;13.850;2022-10-04T00:32:29;12.20;99.90
19000;DHT22;9633;50.980;13.850;2022-10-04T00:34:43;12.20;99.90
19000;DHT22;9633;50.980;13.850;2022-10-04T00:36:48;12.20;99.90
19000;DHT22;9633;50.980;13.850;2022-10-04T00:38:25;12.20;99.90
19000;DHT22;9633;50.980;13.850;2022-10-04T00:40:01;12.20;99.90
19000;DHT22;9633;50.980;13.850;2022-10-04T00:41:40;12.20;99.90
19000;DHT22;9633;50.980;13.850;2022-10-04T00:43:16;12.30;99.90
19000;DHT22;9633;50.980;13.850;2022-10-04T00:44:53;12.20;99.90
19000;DHT22;9633;50.980;13.850;2022-10-04T00:46:29;12.20;99.90
19000;DHT22;9633;50.980;13.850;2022-10-04T00:48:32;12.20;99.90
19000;DHT22;9633;50.980;13.850;2022-10-04T00:50:13;12.20;99.90
19000;DHT22;9633;50.980;13.850;2022-10-04T00:51:53;12.20;99.90
19000;DHT22;9633;50.980;13.850;2022-10-04T00:53:57;12.20;99.90
19000;DHT22;9633;50.980;13.850;2022-10-04T00:55:36;12.30;99.90
19000;DHT22;9633;50.980;13.850;2022-10-04T00:57:15;12.30;99.90
19000;DHT22;9633;50.980;13.850;2022-10-04T01:00:59;12.40;99.90
19000;DHT22;9633;50.980;13.850;2022-10-04T01:02:36;12.40;99.90
19000;DHT22;9633;50.980;13.850;2022-10-04T01:04:22;12.40;99.90
19000;DHT22;9633;50.980;13.850;2022-10-04T01:05:59;12.40;99.90
19000;DHT22;9633;50.980;13.850;2022-10-04T01:07:37;12.40;99.90
19000;DHT22;9633;50.980;13.850;2022-10-04T01:09:11;12.40;99.90
19000;DHT22;9633;50.980;13.850;2022-10-04T01:10:48;12.40;99.90
19000;DHT22;9633;50.980;13.850;2022-10-04T01:12:42;12.40;99.90
19000;DHT22;9633;50.980;13.850;2022-10-04T01:14:23;12.50;99.90
19000;DHT22;9633;50.980;13.850;2022-10-04T01:16:00;12.50;99.90
19000;DHT22;9633;50.980;13.850;2022-10-04T01:17:39;12.50;99.90
19000;DHT22;9633;50.980;13.850;2022-10-04T01:19:28;12.40;99.90
19000;DHT22;9633;50.980;13.850;2022-10-04T01:21:04;12.40;99.90
19000;DHT22;9633;50.980;13.850;2022-10-04T01:22:42;12.40;99.90
19000;DHT22;9633;50.980;13.850;2022-10-04T01:24:18;12.50;99.90
19000;DHT22;9633;50.980;13.850;2022-10-04T01:25:52;12.50;99.90
19000;DHT22;9633;50.980;13.850;2022-10-04T01:27:33;12.50;99.90
19000;DHT22;9633;50.980;13.850;2022-10-04T01:29:10;12.50;99.90
19000;DHT22;9633;50.980;13.850;2022-10-04T01:30:44;12.50;99.90
19000;DHT22;9633;50.980;13.850;2022-10-04T01:32:17;12.50;99.90
19000;DHT22;9633;50.980;13.850;2022-10-04T01:33:50;12.50;99.90
19000;DHT22;9633;50.980;13.850;2022-10-04T01:35:24;12.40;99.90
19000;DHT22;9633;50.980;13.850;2022-10-04T01:36:58;12.40;99.90
19000;DHT22;9633;50.980;13.850;2022-10-04T01:38:33;12.40;99.90
19000;DHT22;9633;50.980;13.850;2022-10-04T01:40:07;12.40;99.90
19000;DHT22;9633;50.980;13.850;2022-10-04T01:41:47;12.40;99.90
19000;DHT22;9633;50.980;13.850;2022-10-04T01:43:31;12.40;99.90
19000;DHT22;9633;50.980;13.850;2022-10-04T01:45:10;12.40;99.90
19000;DHT22;9633;50.980;13.850;2022-10-04T01:46:46;12.40;99.90
19000;DHT22;9633;50.980;13.850;2022-10-04T01:48:22;12.40;99.90
19000;DHT22;9633;50.980;13.850;2022-10-04T01:49:57;12.40;99.90
19000;DHT22;9633;50.980;13.850;2022-10-04T01:51:35;12.40;99.90
19000;DHT22;9633;50.980;13.850;2022-10-04T01:53:14;12.40;99.90
19000;DHT22;9633;50.980;13.850;2022-10-04T01:54:57;12.40;99.90
19000;DHT22;9633;50.980;13.850;2022-10-04T01:56:37;12.40;99.90
19000;DHT22;9633;50.980;13.850;2022-10-04T01:58:15;12.40;99.90
19000;DHT22;9633;50.980;13.850;2022-10-04T01:59:53;12.30;99.90
19000;DHT22;9633;50.980;13.850;2022-10-04T02:01:31;12.30;99.90
19000;DHT22;9633;50.980;13.850;2022-10-04T02:03:10;12.30;99.90
19000;DHT22;9633;50.980;13.850;2022-10-04T02:04:49;12.30;99.90
19000;DHT22;9633;50.980;13.850;2022-10-04T02:06:23;12.40;99.90
19000;DHT22;9633;50.980;13.850;2022-10-04T02:08:01;12.40;99.90
19000;DHT22;9633;50.980;13.850;2022-10-04T02:09:38;12.40;99.90
19000;DHT22;9633;50.980;13.850;2022-10-04T02:11:16;12.40;99.90
19000;DHT22;9633;50.980;13.850;2022-10-04T02:12:52;12.40;99.90
19000;DHT22;9633;50.980;13.850;2022-10-04T02:14:28;12.40;99.90
19000;DHT22;9633;50.980;13.850;2022-10-04T02:16:03;12.40;99.90
19000;DHT22;9633;50.980;13.850;2022-10-04T02:17:42;12.40;99.90
19000;DHT22;9633;50.980;13.850;2022-10-04T02:19:16;12.40;99.90
19000;DHT22;9633;50.980;13.850;2022-10-04T02:20:49;12.40;99.90
19000;DHT22;9633;50.980;13.850;2022-10-04T02:22:24;12.40;99.90
19000;DHT22;9633;50.980;13.850;2022-10-04T02:23:57;12.40;99.90
19000;DHT22;9633;50.980;13.850;2022-10-04T02:25:31;12.40;99.90
19000;DHT22;9633;50.980;13.850;2022-10-04T02:27:07;12.40;99.90
19000;DHT22;9633;50.980;13.850;2022-10-04T02:28:39;12.40;99.90
19000;DHT22;9633;50.980;13.850;2022-10-04T02:30:12;12.40;99.90
19000;DHT22;9633;50.980;13.850;2022-10-04T02:31:45;12.40;99.90
19000;DHT22;9633;50.980;13.850;2022-10-04T02:33:40;12.40;99.90
19000;DHT22;9633;50.980;13.850;2022-10-04T02:35:14;12.30;99.90
19000;DHT22;9633;50.980;13.850;2022-10-04T02:36:48;12.30;99.90
19000;DHT22;9633;50.980;13.850;2022-10-04T02:38:25;12.30;99.90
19000;DHT22;9633;50.980;13.850;2022-10-04T02:40:06;12.30;99.90
19000;DHT22;9633;50.980;13.850;2022-10-04T02:41:42;12.30;99.90
19000;DHT22;9633;50.980;13.850;2022-10-04T02:43:22;12.40;99.90
19000;DHT22;9633;50.980;13.850;2022-10-04T02:45:00;12.40;99.90
19000;DHT22;9633;50.980;13.850;2022-10-04T02:46:43;12.40;99.90
19000;DHT22;9633;50.980;13.850;2022-10-04T02:48:43;12.40;99.90
19000;DHT22;9633;50.980;13.850;2022-10-04T02:50:23;12.40;99.90
19000;DHT22;9633;50.980;13.850;2022-10-04T02:52:01;12.40;99.90
19000;DHT22;9633;50.980;13.850;2022-10-04T02:53:43;12.40;99.90
19000;DHT22;9633;50.980;13.850;2022-10-04T02:55:21;12.40;99.90
19000;DHT22;9633;50.980;13.850;2022-10-04T02:56:55;12.40;99.90
19000;DHT22;9633;50.980;13.850;2022-10-04T02:58:31;12.30;99.90
19000;DHT22;9633;50.980;13.850;2022-10-04T03:00:13;12.30;99.90
19000;DHT22;9633;50.980;13.850;2022-10-04T03:01:54;12.40;99.90
19000;DHT22;9633;50.980;13.850;2022-10-04T03:03:28;12.30;99.90
19000;DHT22;9633;50.980;13.850;2022-10-04T03:05:11;12.40;99.90
19000;DHT22;9633;50.980;13.850;2022-10-04T03:06:45;12.40;99.90
19000;DHT22;9633;50.980;13.850;2022-10-04T03:08:19;12.30;99.90
19000;DHT22;9633;50.980;13.850;2022-10-04T03:09:52;12.30;99.90
19000;DHT22;9633;50.980;13.850;2022-10-04T03:11:27;12.40;99.90
19000;DHT22;9633;50.980;13.850;2022-10-04T03:13:02;12.30;99.90
19000;DHT22;9633;50.980;13.850;2022-10-04T03:14:38;12.30;99.90
19000;DHT22;9633;50.980;13.850;2022-10-04T03:16:11;12.30;99.90
19000;DHT22;9633;50.980;13.850;2022-10-04T03:17:44;12.30;99.90
19000;DHT22;9633;50.980;13.850;2022-10-04T03:19:18;12.30;99.90
19000;DHT22;9633;50.980;13.850;2022-10-04T03:20:52;12.30;99.90
19000;DHT22;9633;50.980;13.850;2022-10-04T03:22:25;12.30;99.90
19000;DHT22;9633;50.980;13.850;2022-10-04T03:23:59;12.40;99.90
19000;DHT22;9633;50.980;13.850;2022-10-04T03:25:41;12.40;99.90
19000;DHT22;9633;50.980;13.850;2022-10-04T03:27:20;12.40;99.90
19000;DHT22;9633;50.980;13.850;2022-10-04T03:28:56;12.30;99.90
19000;DHT22;9633;50.980;13.850;2022-10-04T03:30:30;12.40;99.90
19000;DHT22;9633;50.980;13.850;2022-10-04T03:32:04;12.40;99.90
19000;DHT22;9633;50.980;13.850;2022-10-04T03:33:37;12.30;99.90
19000;DHT22;9633;50.980;13.850;2022-10-04T03:35:18;12.30;99.90
19000;DHT22;9633;50.980;13.850;2022-10-04T03:36:53;12.30;99.90
19000;DHT22;9633;50.980;13.850;2022-10-04T03:38:31;12.30;99.90
19000;DHT22;9633;50.980;13.850;2022-10-04T03:40:08;12.30;99.90
19000;DHT22;9633;50.980;13.850;2022-10-04T03:41:42;12.30;99.90
19000;DHT22;9633;50.980;13.850;2022-10-04T03:43:15;12.30;99.90
19000;DHT22;9633;50.980;13.850;2022-10-04T03:44:50;12.30;99.90
19000;DHT22;9633;50.980;13.850;2022-10-04T03:46:26;12.30;99.90
19000;DHT22;9633;50.980;13.850;2022-10-04T03:48:03;12.30;99.90
19000;DHT22;9633;50.980;13.850;2022-10-04T03:49:37;12.30;99.90
19000;DHT22;9633;50.980;13.850;2022-10-04T03:51:15;12.30;99.90
19000;DHT22;9633;50.980;13.850;2022-10-04T03:52:50;12.30;99.90
19000;DHT22;9633;50.980;13.850;2022-10-04T03:54:26;12.30;99.90
19000;DHT22;9633;50.980;13.850;2022-10-04T03:56:01;12.30;99.90
19000;DHT22;9633;50.980;13.850;2022-10-04T03:57:36;12.20;99.90
19000;DHT22;9633;50.980;13.850;2022-10-04T03:59:15;12.20;99.90
19000;DHT22;9633;50.980;13.850;2022-10-04T04:01:04;12.20;99.90
19000;DHT22;9633;50.980;13.850;2022-10-04T04:02:45;12.30;99.90
19000;DHT22;9633;50.980;13.850;2022-10-04T04:04:25;12.30;99.90
19000;DHT22;9633;50.980;13.850;2022-10-04T04:06:05;12.30;99.90
19000;DHT22;9633;50.980;13.850;2022-10-04T04:07:45;12.30;99.90
19000;DHT22;9633;50.980;13.850;2022-10-04T04:09:27;12.30;99.90
19000;DHT22;9633;50.980;13.850;2022-10-04T04:11:15;12.30;99.90
19000;DHT22;9633;50.980;13.850;2022-10-04T04:12:53;12.30;99.90
19000;DHT22;9633;50.980;13.850;2022-10-04T04:14:28;12.30;99.90
19000;DHT22;9633;50.980;13.850;2022-10-04T04:16:02;12.30;99.90
19000;DHT22;9633;50.980;13.850;2022-10-04T04:17:38;12.30;99.90
19000;DHT22;9633;50.980;13.850;2022-10-04T04:19:17;12.30;99.90
19000;DHT22;9633;50.980;13.850;2022-10-04T04:20:53;12.30;99.90
19000;DHT22;9633;50.980;13.850;2022-10-04T04:22:30;12.30;99.90
19000;DHT22;9633;50.980;13.850;2022-10-04T04:24:06;12.30;99.90
19000;DHT22;9633;50.980;13.850;2022-10-04T04:25:47;12.30;99.90
19000;DHT22;9633;50.980;13.850;2022-10-04T04:27:22;12.20;99.90
19000;DHT22;9633;50.980;13.850;2022-10-04T04:29:04;12.30;99.90
19000;DHT22;9633;50.980;13.850;2022-10-04T04:30:43;12.30;99.90
19000;DHT22;9633;50.980;13.850;2022-10-04T04:32:19;12.20;99.90
19000;DHT22;9633;50.980;13.850;2022-10-04T04:33:56;12.30;99.90
19000;DHT22;9633;50.980;13.850;2022-10-04T04:35:33;12.20;99.90
19000;DHT22;9633;50.980;13.850;2022-10-04T04:37:09;12.20;99.90
19000;DHT22;9633;50.980;13.850;2022-10-04T04:38:43;12.30;99.90
19000;DHT22;9633;50.980;13.850;2022-10-04T04:40:30;12.30;99.90
19000;DHT22;9633;50.980;13.850;2022-10-04T04:42:12;12.20;99.90
19000;DHT22;9633;50.980;13.850;2022-10-04T04:43:46;12.30;99.90
19000;DHT22;9633;50.980;13.850;2022-10-04T04:45:21;12.20;99.90
19000;DHT22;9633;50.980;13.850;2022-10-04T04:46:56;12.30;99.90
19000;DHT22;9633;50.980;13.850;2022-10-04T04:48:31;12.30;99.90
19000;DHT22;9633;50.980;13.850;2022-10-04T04:50:07;12.30;99.90
19000;DHT22;9633;50.980;13.850;2022-10-04T04:51:48;12.30;99.90
19000;DHT22;9633;50.980;13.850;2022-10-04T04:53:23;12.30;99.90
19000;DHT22;9633;50.980;13.850;2022-10-04T04:54:58;12.30;99.90
19000;DHT22;9633;50.980;13.850;2022-10-04T04:56:32;12.30;99.90
19000;DHT22;9633;50.980;13.850;2022-10-04T04:58:07;12.30;99.90
19000;DHT22;9633;50.980;13.850;2022-10-04T04:59:46;12.30;99.90
19000;DHT22;9633;50.980;13.850;2022-10-04T05:01:23;12.30;99.90
19000;DHT22;9633;50.980;13.850;2022-10-04T05:02:59;12.40;99.90
19000;DHT22;9633;50.980;13.850;2022-10-04T05:04:32;12.30;99.90
19000;DHT22;9633;50.980;13.850;2022-10-04T05:06:23;12.30;99.90
19000;DHT22;9633;50.980;13.850;2022-10-04T05:08:12;12.30;99.90
19000;DHT22;9633;50.980;13.850;2022-10-04T05:09:45;12.30;99.90
19000;DHT22;9633;50.980;13.850;2022-10-04T05:11:20;12.30;99.90
19000;DHT22;9633;50.980;13.850;2022-10-04T05:12:55;12.30;99.90
19000;DHT22;9633;50.980;13.850;2022-10-04T05:14:28;12.30;99.90
19000;DHT22;9633;50.980;13.850;2022-10-04T05:16:03;12.30;99.90
19000;DHT22;9633;50.980;13.850;2022-10-04T05:17:37;12.30;99.90
19000;DHT22;9633;50.980;13.850;2022-10-04T05:19:13;12.20;99.90
19000;DHT22;9633;50.980;13.850;2022-10-04T05:20:50;12.20;99.90
19000;DHT22;9633;50.980;13.850;2022-10-04T05:22:26;12.20;99.90
19000;DHT22;9633;50.980;13.850;2022-10-04T05:24:09;12.20;99.90
19000;DHT22;9633;50.980;13.850;2022-10-04T05:25:43;12.20;99.90
19000;DHT22;9633;50.980;13.850;2022-10-04T05:27:20;12.20;99.90
19000;DHT22;9633;50.980;13.850;2022-10-04T05:29:00;12.20;99.90
19000;DHT22;9633;50.980;13.850;2022-10-04T05:30:49;12.20;99.90
19000;DHT22;9633;50.980;13.850;2022-10-04T05:32:28;12.30;99.90
19000;DHT22;9633;50.980;13.850;2022-10-04T05:34:17;12.30;99.90
19000;DHT22;9633;50.980;13.850;2022-10-04T05:36:10;12.30;99.90
19000;DHT22;9633;50.980;13.850;2022-10-04T05:38:03;12.30;99.90
19000;DHT22;9633;50.980;13.850;2022-10-04T05:39:42;12.30;99.90
19000;DHT22;9633;50.980;13.850;2022-10-04T05:41:22;12.30;99.90
19000;DHT22;9633;50.980;13.850;2022-10-04T05:43:19;12.30;99.90
19000;DHT22;9633;50.980;13.850;2022-10-04T05:44:56;12.30;99.90
19000;DHT22;9633;50.980;13.850;2022-10-04T05:46:30;12.30;99.90
19000;DHT22;9633;50.980;13.850;2022-10-04T05:48:06;12.30;99.90
19000;DHT22;9633;50.980;13.850;2022-10-04T05:49:42;12.30;99.90
19000;DHT22;9633;50.980;13.850;2022-10-04T05:51:19;12.30;99.90
19000;DHT22;9633;50.980;13.850;2022-10-04T05:52:51;12.30;99.90
19000;DHT22;9633;50.980;13.850;2022-10-04T05:54:26;12.30;99.90
19000;DHT22;9633;50.980;13.850;2022-10-04T05:56:09;12.30;99.90
19000;DHT22;9633;50.980;13.850;2022-10-04T06:00:07;12.40;99.90
19000;DHT22;9633;50.980;13.850;2022-10-04T06:01:49;12.30;99.90
19000;DHT22;9633;50.980;13.850;2022-10-04T06:03:38;12.30;99.90
19000;DHT22;9633;50.980;13.850;2022-10-04T06:05:20;12.30;99.90
19000;DHT22;9633;50.980;13.850;2022-10-04T06:07:02;12.30;99.90
19000;DHT22;9633;50.980;13.850;2022-10-04T06:08:42;12.40;99.90
19000;DHT22;9633;50.980;13.850;2022-10-04T06:10:41;12.40;99.90
19000;DHT22;9633;50.980;13.850;2022-10-04T06:12:26;12.40;99.90
19000;DHT22;9633;50.980;13.850;2022-10-04T06:14:24;12.40;99.90
19000;DHT22;9633;50.980;13.850;2022-10-04T06:16:11;12.40;99.90
19000;DHT22;9633;50.980;13.850;2022-10-04T06:17:55;12.40;99.90
19000;DHT22;9633;50.980;13.850;2022-10-04T06:22:02;12.50;99.90
19000;DHT22;9633;50.980;13.850;2022-10-04T06:23:46;12.60;99.90
19000;DHT22;9633;50.980;13.850;2022-10-04T06:25:23;12.60;99.90
19000;DHT22;9633;50.980;13.850;2022-10-04T06:27:02;12.60;99.90
19000;DHT22;9633;50.980;13.850;2022-10-04T06:28:40;12.60;99.90
19000;DHT22;9633;50.980;13.850;2022-10-04T06:30:16;12.60;99.90
19000;DHT22;9633;50.980;13.850;2022-10-04T06:32:16;12.60;99.90
19000;DHT22;9633;50.980;13.850;2022-10-04T06:34:06;12.60;99.90
19000;DHT22;9633;50.980;13.850;2022-10-04T06:36:10;12.60;99.90
19000;DHT22;9633;50.980;13.850;2022-10-04T06:40:32;12.70;99.90
19000;DHT22;9633;50.980;13.850;2022-10-04T06:42:24;12.70;99.90
19000;DHT22;9633;50.980;13.850;2022-10-04T06:44:24;12.80;99.90
19000;DHT22;9633;50.980;13.850;2022-10-04T06:46:08;12.80;99.90
19000;DHT22;9633;50.980;13.850;2022-10-04T06:47:56;12.90;99.90
19000;DHT22;9633;50.980;13.850;2022-10-04T06:49:38;12.90;99.90
19000;DHT22;9633;50.980;13.850;2022-10-04T06:51:22;13.00;99.90
19000;DHT22;9633;50.980;13.850;2022-10-04T06:53:08;13.10;99.90
19000;DHT22;9633;50.980;13.850;2022-10-04T06:57:07;13.20;99.90
19000;DHT22;9633;50.980;13.850;2022-10-04T06:59:18;13.30;99.90
19000;DHT22;9633;50.980;13.850;2022-10-04T07:00:58;13.40;99.90
19000;DHT22;9633;50.980;13.850;2022-10-04T07:02:39;13.40;99.90
19000;DHT22;9633;50.980;13.850;2022-10-04T07:04:23;13.40;99.90
19000;DHT22;9633;50.980;13.850;2022-10-04T07:06:23;13.40;99.90
19000;DHT22;9633;50.980;13.850;2022-10-04T07:08:05;13.30;99.90
19000;DHT22;9633;50.980;13.850;2022-10-04T07:09:42;13.30;99.90
19000;DHT22;9633;50.980;13.850;2022-10-04T07:11:17;13.40;99.90
19000;DHT22;9633;50.980;13.850;2022-10-04T07:13:05;13.40;99.90
19000;DHT22;9633;50.980;13.850;2022-10-04T07:14:46;13.40;99.90
19000;DHT22;9633;50.980;13.850;2022-10-04T07:16:28;13.50;99.90
19000;DHT22;9633;50.980;13.850;2022-10-04T07:18:09;13.40;99.90
19000;DHT22;9633;50.980;13.850;2022-10-04T07:19:46;13.40;99.90
19000;DHT22;9633;50.980;13.850;2022-10-04T07:21:21;13.40;99.90
19000;DHT22;9633;50.980;13.850;2022-10-04T07:23:02;13.40;99.90
19000;DHT22;9633;50.980;13.850;2022-10-04T07:25:11;13.40;99.90
19000;DHT22;9633;50.980;13.850;2022-10-04T07:26:48;13.30;99.90
19000;DHT22;9633;50.980;13.850;2022-10-04T07:28:25;13.30;99.90
19000;DHT22;9633;50.980;13.850;2022-10-04T07:30:19;13.20;99.90
19000;DHT22;9633;50.980;13.850;2022-10-04T07:32:04;13.30;99.90
19000;DHT22;9633;50.980;13.850;2022-10-04T07:33:43;13.30;99.90
19000;DHT22;9633;50.980;13.850;2022-10-04T07:35:29;13.50;99.90
19000;DHT22;9633;50.980;13.850;2022-10-04T07:37:08;13.50;99.90
19000;DHT22;9633;50.980;13.850;2022-10-04T07:38:47;13.50;99.90
19000;DHT22;9633;50.980;13.850;2022-10-04T07:40:24;13.50;99.90
19000;DHT22;9633;50.980;13.850;2022-10-04T07:42:09;13.50;99.90
19000;DHT22;9633;50.980;13.850;2022-10-04T07:43:50;13.60;99.90
19000;DHT22;9633;50.980;13.850;2022-10-04T07:45:28;13.70;99.90
19000;DHT22;9633;50.980;13.850;2022-10-04T07:47:11;13.90;99.90
19000;DHT22;9633;50.980;13.850;2022-10-04T07:48:45;14.10;99.90
19000;DHT22;9633;50.980;13.850;2022-10-04T07:50:23;14.10;99.90
19000;DHT22;9633;50.980;13.850;2022-10-04T07:52:16;14.20;99.90
19000;DHT22;9633;50.980;13.850;2022-10-04T07:53:55;14.20;99.90
19000;DHT22;9633;50.980;13.850;2022-10-04T07:55:38;14.30;99.90
19000;DHT22;9633;50.980;13.850;2022-10-04T07:57:16;14.30;99.90
19000;DHT22;9633;50.980;13.850;2022-10-04T07:59:04;14.40;99.90
19000;DHT22;9633;50.980;13.850;2022-10-04T08:00:47;14.60;99.90
19000;DHT22;9633;50.980;13.850;2022-10-04T08:02:30;14.50;99.90
19000;DHT22;9633;50.980;13.850;2022-10-04T08:04:13;14.30;99.90
19000;DHT22;9633;50.980;13.850;2022-10-04T08:05:55;14.50;99.90
19000;DHT22;9633;50.980;13.850;2022-10-04T08:07:40;14.60;99.90
19000;DHT22;9633;50.980;13.850;2022-10-04T08:09:38;14.30;99.90
19000;DHT22;9633;50.980;13.850;2022-10-04T08:11:21;14.00;99.90
19000;DHT22;9633;50.980;13.850;2022-10-04T08:13:02;14.00;99.90
19000;DHT22;9633;50.980;13.850;2022-10-04T08:14:48;14.10;99.90
19000;DHT22;9633;50.980;13.850;2022-10-04T08:16:33;14.10;99.90
19000;DHT22;9633;50.980;13.850;2022-10-04T08:18:20;14.20;99.90
19000;DHT22;9633;50.980;13.850;2022-10-04T08:20:06;14.10;99.90
19000;DHT22;9633;50.980;13.850;2022-10-04T08:21:51;13.90;99.90
19000;DHT22;9633;50.980;13.850;2022-10-04T08:23:51;13.90;99.90
19000;DHT22;9633;50.980;13.850;2022-10-04T08:25:35;14.00;99.90
19000;DHT22;9633;50.980;13.850;2022-10-04T08:27:25;14.30;99.90
19000;DHT22;9633;50.980;13.850;2022-10-04T08:29:17;14.50;99.90
19000;DHT22;9633;50.980;13.850;2022-10-04T08:31:22;14.30;99.90
19000;DHT22;9633;50.980;13.850;2022-10-04T08:33:07;14.40;99.90
19000;DHT22;9633;50.980;13.850;2022-10-04T08:34:57;14.40;99.90
19000;DHT22;9633;50.980;13.850;2022-10-04T08:36:43;14.20;99.90
19000;DHT22;9633;50.980;13.850;2022-10-04T08:38:33;14.50;99.90
19000;DHT22;9633;50.980;13.850;2022-10-04T08:40:48;14.70;99.90
19000;DHT22;9633;50.980;13.850;2022-10-04T08:42:49;14.40;99.90
19000;DHT22;9633;50.980;13.850;2022-10-04T08:44:54;14.60;99.90
19000;DHT22;9633;50.980;13.850;2022-10-04T08:49:00;14.50;99.90
19000;DHT22;9633;50.980;13.850;2022-10-04T08:51:15;14.80;99.90
19000;DHT22;9633;50.980;13.850;2022-10-04T08:53:22;14.90;99.90
19000;DHT22;9633;50.980;13.850;2022-10-04T08:57:32;14.50;99.90
19000;DHT22;9633;50.980;13.850;2022-10-04T09:01:50;14.80;99.90
19000;DHT22;9633;50.980;13.850;2022-10-04T09:03:55;14.70;99.90
19000;DHT22;9633;50.980;13.850;2022-10-04T09:05:53;14.90;99.90
19000;DHT22;9633;50.980;13.850;2022-10-04T09:07:50;14.50;99.90
19000;DHT22;9633;50.980;13.850;2022-10-04T09:11:46;14.60;99.90
19000;DHT22;9633;50.980;13.850;2022-10-04T09:13:47;14.70;99.90
19000;DHT22;9633;50.980;13.850;2022-10-04T09:15:41;14.90;99.90
19000;DHT22;9633;50.980;13.850;2022-10-04T09:17:31;15.00;99.90
19000;DHT22;9633;50.980;13.850;2022-10-04T09:19:22;15.00;99.90
19000;DHT22;9633;50.980;13.850;2022-10-04T09:21:09;15.30;99.90
19000;DHT22;9633;50.980;13.850;2022-10-04T09:22:46;15.60;99.90
19000;DHT22;9633;50.980;13.850;2022-10-04T09:24:59;15.80;99.90
19000;DHT22;9633;50.980;13.850;2022-10-04T09:26:43;15.40;99.90
19000;DHT22;9633;50.980;13.850;2022-10-04T09:28:56;15.30;99.90
19000;DHT22;9633;50.980;13.850;2022-10-04T09:30:47;15.50;99.90
19000;DHT22;9633;50.980;13.850;2022-10-04T09:32:44;15.70;99.90
19000;DHT22;9633;50.980;13.850;2022-10-04T09:34:49;15.30;99.90
19000;DHT22;9633;50.980;13.850;2022-10-04T09:37:07;15.30;99.90
19000;DHT22;9633;50.980;13.850;2022-10-04T09:39:11;15.20;99.90
19000;DHT22;9633;50.980;13.850;2022-10-04T09:41:25;15.50;99.90
19000;DHT22;9633;50.980;13.850;2022-10-04T09:45:30;15.60;99.90
19000;DHT22;9633;50.980;13.850;2022-10-04T09:47:33;15.70;99.90
19000;DHT22;9633;50.980;13.850;2022-10-04T09:49:27;16.00;99.90
19000;DHT22;9633;50.980;13.850;2022-10-04T09:51:29;16.20;99.90
19000;DHT22;9633;50.980;13.850;2022-10-04T09:53:31;16.00;99.90
19000;DHT22;9633;50.980;13.850;2022-10-04T09:55:17;16.10;99.90
19000;DHT22;9633;50.980;13.850;2022-10-04T09:57:06;16.10;99.90
19000;DHT22;9633;50.980;13.850;2022-10-04T09:59:01;15.90;99.90
19000;DHT22;9633;50.980;13.850;2022-10-04T10:00:44;16.30;99.90
19000;DHT22;9633;50.980;13.850;2022-10-04T10:02:43;16.70;99.90
19000;DHT22;9633;50.980;13.850;2022-10-04T10:04:35;16.80;99.90
19000;DHT22;9633;50.980;13.850;2022-10-04T10:06:23;16.80;99.90
19000;DHT22;9633;50.980;13.850;2022-10-04T10:09:45;17.00;99.90
19000;DHT22;9633;50.980;13.850;2022-10-04T10:11:45;17.40;99.90
19000;DHT22;9633;50.980;13.850;2022-10-04T10:14:07;17.20;99.90
19000;DHT22;9633;50.980;13.850;2022-10-04T10:15:53;16.50;99.90
19000;DHT22;9633;50.980;13.850;2022-10-04T10:17:37;16.40;99.90
19000;DHT22;9633;50.980;13.850;2022-10-04T10:19:36;16.60;99.90
19000;DHT22;9633;50.980;13.850;2022-10-04T10:21:30;16.60;99.90
19000;DHT22;9633;50.980;13.850;2022-10-04T10:23:36;16.50;99.90
19000;DHT22;9633;50.980;13.850;2022-10-04T10:25:24;16.40;99.90
19000;DHT22;9633;50.980;13.850;2022-10-04T10:27:42;16.60;99.90
19000;DHT22;9633;50.980;13.850;2022-10-04T10:29:44;16.70;99.90
19000;DHT22;9633;50.980;13.850;2022-10-04T10:31:41;17.30;99.90
19000;DHT22;9633;50.980;13.850;2022-10-04T10:35:26;19.50;51.10
19000;DHT22;9633;50.980;13.850;2022-10-04T10:37:07;20.00;1.00
19000;DHT22;9633;50.980;13.850;2022-10-04T10:38:52;18.60;1.00
19000;DHT22;9633;50.980;13.850;2022-10-04T10:40:41;18.30;68.20
19000;DHT22;9633;50.980;13.850;2022-10-04T10:42:34;17.00;99.90
19000;DHT22;9633;50.980;13.850;2022-10-04T10:44:24;17.10;99.90
19000;DHT22;9633;50.980;13.850;2022-10-04T10:46:16;17.30;99.90
19000;DHT22;9633;50.980;13.850;2022-10-04T10:47:59;17.20;99.90
19000;DHT22;9633;50.980;13.850;2022-10-04T10:49:57;17.50;99.90
19000;DHT22;9633;50.980;13.850;2022-10-04T10:51:51;17.30;99.90
19000;DHT22;9633;50.980;13.850;2022-10-04T10:56:27;17.20;99.90
19000;DHT22;9633;50.980;13.850;2022-10-04T10:58:42;16.70;99.90
19000;DHT22;9633;50.980;13.850;2022-10-04T11:00:22;17.40;99.90
19000;DHT22;9633;50.980;13.850;2022-10-04T11:02:15;18.00;99.90
19000;DHT22;9633;50.980;13.850;2022-10-04T11:04:37;18.60;99.90
19000;DHT22;9633;50.980;13.850;2022-10-04T11:09:00;19.30;33.40
19000;DHT22;9633;50.980;13.850;2022-10-04T11:11:14;19.40;18.30
19000;DHT22;9633;50.980;13.850;2022-10-04T11:15:39;18.70;1.00
19000;DHT22;9633;50.980;13.850;2022-10-04T11:17:32;18.00;49.60
19000;DHT22;9633;50.980;13.850;2022-10-04T11:19:36;18.10;94.00
19000;DHT22;9633;50.980;13.850;2022-10-04T11:21:45;18.20;99.90
19000;DHT22;9633;50.980;13.850;2022-10-04T11:24:10;18.70;99.90
19000;DHT22;9633;50.980;13.850;2022-10-04T11:26:04;19.10;1.00
19000;DHT22;9633;50.980;13.850;2022-10-04T11:27:49;18.90;1.00
19000;DHT22;9633;50.980;13.850;2022-10-04T11:29:44;18.30;46.00
19000;DHT22;9633;50.980;13.850;2022-10-04T11:31:56;18.10;75.20